Time;durP1;ratioP1;P1;durP2;ratioP2;P2;SDS_P1;SDS_P2;PMS_P1;PMS_P2;Temp;Humidity;BMP_temperature;BMP_pressure;BME280_temperature;BME280_humidity;BME280_pressure;Samples;Min_cycle;Max_cycle;Signal;HPM_P1;HPM_P2
2023/06/16 00:00:20;;;;;;;3.50;2.90;;;15.90;99.90;;;;;;5092027;28;20539;-82
2023/06/16 00:02:48;;;;;;;3.60;2.97;;;16.00;99.90;;;;;;5089349;28;20435;-82
2023/06/16 00:05:15;;;;;;;4.30;3.40;;;16.10;99.90;;;;;;5091184;28;20435;-82
2023/06/16 00:07:42;;;;;;;4.67;3.53;;;16.20;99.90;;;;;;5090867;28;20529;-81
2023/06/16 00:10:10;;;;;;;5.33;3.03;;;16.00;99.90;;;;;;5091180;28;20494;-82
2023/06/16 00:12:40;;;;;;;3.33;2.73;;;15.90;99.90;;;;;;5091068;28;20519;-82
2023/06/16 00:15:09;;;;;;;4.83;4.10;;;15.90;99.90;;;;;;5090842;28;20454;-82
2023/06/16 00:17:46;;;;;;;3.90;3.13;;;16.00;99.90;;;;;;5091160;28;20448;-82
2023/06/16 00:20:15;;;;;;;3.70;2.90;;;15.90;99.90;;;;;;5091515;28;20918;-82
2023/06/16 00:22:47;;;;;;;4.30;3.33;;;15.80;99.90;;;;;;5092193;28;20883;-82
2023/06/16 00:25:15;;;;;;;3.73;3.13;;;15.80;99.90;;;;;;5094851;28;20542;-82
2023/06/16 00:27:43;;;;;;;4.03;3.13;;;15.90;99.90;;;;;;5095051;28;20446;-82
2023/06/16 00:30:11;;;;;;;3.97;3.47;;;15.90;99.90;;;;;;5095308;28;20537;-81
2023/06/16 00:32:38;;;;;;;4.87;3.50;;;15.90;99.90;;;;;;5094919;28;20521;-82
2023/06/16 00:35:06;;;;;;;5.33;3.43;;;15.40;99.90;;;;;;5094630;28;20877;-82
2023/06/16 00:37:33;;;;;;;4.90;3.80;;;15.40;99.90;;;;;;5095100;28;20950;-82
2023/06/16 00:40:00;;;;;;;4.07;3.50;;;15.40;99.90;;;;;;5095264;28;20483;-82
2023/06/16 00:42:27;;;;;;;5.87;3.13;;;15.40;99.90;;;;;;5094978;28;20523;-82
2023/06/16 00:44:55;;;;;;;4.53;3.40;;;15.50;99.90;;;;;;5094677;28;20545;-81
2023/06/16 00:47:22;;;;;;;3.90;3.17;;;15.60;99.90;;;;;;5094457;28;20525;-82
2023/06/16 00:49:49;;;;;;;3.90;2.93;;;15.70;99.90;;;;;;5094877;28;20475;-82
2023/06/16 00:52:17;;;;;;;4.63;3.70;;;15.60;99.90;;;;;;5094848;28;21020;-82
2023/06/16 00:54:44;;;;;;;4.90;3.20;;;15.70;99.90;;;;;;5092851;28;20542;-82
2023/06/16 00:57:13;;;;;;;4.13;2.90;;;15.70;99.90;;;;;;5094428;28;20997;-82
2023/06/16 00:59:40;;;;;;;3.60;3.20;;;15.80;99.90;;;;;;5095097;28;20534;-82
2023/06/16 01:02:09;;;;;;;4.43;3.40;;;15.90;99.90;;;;;;5093041;28;20447;-82
2023/06/16 01:04:37;;;;;;;4.40;3.13;;;16.00;99.90;;;;;;5094386;28;20488;-82
2023/06/16 01:07:11;;;;;;;3.73;3.00;;;15.90;99.90;;;;;;5094733;28;20825;-82
2023/06/16 01:09:47;;;;;;;5.00;4.50;;;15.90;99.90;;;;;;5094103;28;20832;-82
2023/06/16 01:12:25;;;;;;;4.50;3.90;;;15.90;99.90;;;;;;5094110;28;20481;-82
2023/06/16 01:15:02;;;;;;;5.00;3.97;;;15.90;99.90;;;;;;5093800;28;20480;-83
2023/06/16 01:17:33;;;;;;;4.10;3.27;;;15.70;99.90;;;;;;5094185;28;20451;-81
2023/06/16 01:20:09;;;;;;;4.73;3.13;;;15.60;99.90;;;;;;5094163;28;20539;-82
2023/06/16 01:23:02;;;;;;;5.27;4.20;;;15.50;99.90;;;;;;5094210;28;20496;-82
2023/06/16 01:25:32;;;;;;;6.63;4.07;;;15.40;99.90;;;;;;5093933;28;20941;-82
2023/06/16 01:28:03;;;;;;;4.93;3.80;;;15.40;99.90;;;;;;5093963;28;20443;-82
2023/06/16 01:30:33;;;;;;;4.70;3.90;;;15.30;99.90;;;;;;5094235;28;20495;-82
2023/06/16 01:33:02;;;;;;;4.60;3.50;;;15.20;99.90;;;;;;5093763;28;20496;-82
2023/06/16 01:35:30;;;;;;;4.50;3.87;;;15.20;99.90;;;;;;5093752;28;20481;-82
2023/06/16 01:37:58;;;;;;;5.93;4.30;;;15.20;99.90;;;;;;5094311;28;20451;-82
2023/06/16 01:40:27;;;;;;;5.77;4.30;;;15.30;99.90;;;;;;5094343;28;20526;-82
2023/06/16 01:42:57;;;;;;;4.57;3.47;;;15.30;99.90;;;;;;5092801;28;20469;-82
2023/06/16 01:45:25;;;;;;;3.83;3.40;;;15.30;99.90;;;;;;5093242;28;21041;-82
2023/06/16 01:47:52;;;;;;;5.60;3.70;;;15.30;99.90;;;;;;5093563;28;20550;-82
2023/06/16 01:50:20;;;;;;;3.90;3.43;;;15.20;99.90;;;;;;5093633;28;20721;-82
2023/06/16 01:52:47;;;;;;;4.67;3.90;;;15.20;99.90;;;;;;5093687;28;20560;-82
2023/06/16 01:55:14;;;;;;;3.90;3.17;;;15.20;99.90;;;;;;5091633;28;20970;-82
2023/06/16 01:57:41;;;;;;;4.47;3.40;;;15.10;99.90;;;;;;5093370;28;20422;-82
2023/06/16 02:00:15;;;;;;;4.07;3.23;;;15.10;99.90;;;;;;5093523;28;20446;-82
2023/06/16 02:02:46;;;;;;;4.70;3.83;;;15.10;99.90;;;;;;5091866;28;20456;-82
2023/06/16 02:05:17;;;;;;;4.40;3.33;;;15.10;99.90;;;;;;5093089;28;20533;-82
2023/06/16 02:07:47;;;;;;;5.10;4.10;;;15.10;99.90;;;;;;5093167;28;20971;-82
2023/06/16 02:10:15;;;;;;;5.00;4.03;;;15.10;99.90;;;;;;5093311;28;20958;-82
2023/06/16 02:12:42;;;;;;;5.10;3.70;;;15.10;99.90;;;;;;5092975;28;20445;-83
2023/06/16 02:15:12;;;;;;;5.67;4.47;;;15.10;99.90;;;;;;5092934;28;20493;-82
2023/06/16 02:17:44;;;;;;;4.47;4.03;;;15.20;99.90;;;;;;5093247;28;20871;-82
2023/06/16 02:20:11;;;;;;;5.70;3.83;;;15.20;99.90;;;;;;5093192;28;20486;-82
2023/06/16 02:22:38;;;;;;;4.40;3.30;;;15.20;99.90;;;;;;5091341;28;20444;-82
2023/06/16 02:25:06;;;;;;;5.03;4.03;;;15.30;99.90;;;;;;5092795;28;20528;-82
2023/06/16 02:27:33;;;;;;;3.73;3.30;;;15.30;99.90;;;;;;5092757;28;20496;-82
2023/06/16 02:30:01;;;;;;;4.83;3.33;;;15.40;99.90;;;;;;5093001;28;20893;-82
2023/06/16 02:32:29;;;;;;;4.83;3.90;;;15.40;99.90;;;;;;5093114;28;20475;-82
2023/06/16 02:34:57;;;;;;;5.60;4.37;;;15.50;99.90;;;;;;5092632;28;20482;-82
2023/06/16 02:37:25;;;;;;;4.20;3.30;;;15.60;99.90;;;;;;5092479;28;20505;-82
2023/06/16 02:39:52;;;;;;;5.00;3.43;;;15.60;99.90;;;;;;5092675;28;20450;-82
2023/06/16 02:42:19;;;;;;;4.53;3.23;;;15.50;99.90;;;;;;5091725;28;20444;-82
2023/06/16 02:44:46;;;;;;;4.00;3.60;;;15.50;99.90;;;;;;5092537;28;20499;-82
2023/06/16 02:47:13;;;;;;;4.30;3.90;;;15.30;99.90;;;;;;5091873;28;20998;-82
2023/06/16 02:49:42;;;;;;;4.83;4.33;;;15.20;99.90;;;;;;5093028;28;20535;-82
2023/06/16 02:52:10;;;;;;;4.93;3.90;;;15.20;99.90;;;;;;5092635;28;20458;-82
2023/06/16 02:54:37;;;;;;;6.57;3.70;;;15.30;99.90;;;;;;5090656;28;20517;-82
2023/06/16 02:57:05;;;;;;;4.37;3.53;;;15.40;99.90;;;;;;5103481;28;20454;-83
2023/06/16 02:59:32;;;;;;;4.27;3.10;;;15.40;99.90;;;;;;5094250;28;20428;-82
2023/06/16 03:01:59;;;;;;;5.07;3.63;;;15.20;99.90;;;;;;5090569;28;20470;-82
2023/06/16 03:04:25;;;;;;;4.20;3.80;;;15.20;99.90;;;;;;5092418;28;20459;-82
2023/06/16 03:06:57;;;;;;;4.97;3.80;;;15.10;99.90;;;;;;5091956;28;20880;-82
2023/06/16 03:09:24;;;;;;;4.20;3.80;;;15.10;99.90;;;;;;5091789;28;20510;-82
2023/06/16 03:11:51;;;;;;;4.17;3.40;;;15.00;99.90;;;;;;5092391;28;20498;-82
2023/06/16 03:14:19;;;;;;;4.27;3.67;;;15.10;99.90;;;;;;5092179;28;20477;-82
2023/06/16 03:16:47;;;;;;;4.60;3.50;;;15.10;99.90;;;;;;5091806;28;20803;-82
2023/06/16 03:19:15;;;;;;;5.60;3.70;;;15.20;99.90;;;;;;5091875;28;20446;-82
2023/06/16 03:21:42;;;;;;;5.20;4.40;;;15.00;99.90;;;;;;5091980;28;20533;-82
2023/06/16 03:24:10;;;;;;;4.50;4.10;;;14.90;99.90;;;;;;5091847;28;20495;-82
2023/06/16 03:26:37;;;;;;;5.10;4.50;;;14.80;99.90;;;;;;5091439;28;20600;-82
2023/06/16 03:29:05;;;;;;;4.80;3.40;;;14.50;99.90;;;;;;5091784;28;20491;-82
2023/06/16 03:31:32;;;;;;;4.23;3.73;;;14.40;99.90;;;;;;5090045;28;20537;-82
2023/06/16 03:33:59;;;;;;;5.50;4.70;;;14.30;99.90;;;;;;5089960;28;20515;-82
2023/06/16 03:36:27;;;;;;;4.67;3.90;;;14.30;99.90;;;;;;5091395;28;20892;-82
2023/06/16 03:38:54;;;;;;;4.90;3.93;;;14.40;99.90;;;;;;5091478;28;20529;-82
2023/06/16 03:41:23;;;;;;;5.00;3.97;;;14.50;99.90;;;;;;5091923;28;20477;-82
2023/06/16 03:43:50;;;;;;;3.77;3.27;;;14.60;99.90;;;;;;5089799;28;20471;-82
2023/06/16 03:46:16;;;;;;;4.50;3.73;;;14.70;99.90;;;;;;5091380;28;21023;-82
2023/06/16 03:48:43;;;;;;;7.40;4.30;;;14.80;99.90;;;;;;5091635;28;20446;-82
2023/06/16 03:51:10;;;;;;;5.00;3.97;;;15.00;99.90;;;;;;5091752;28;20473;-83
2023/06/16 03:53:37;;;;;;;4.10;3.67;;;15.00;99.90;;;;;;5091681;28;20481;-82
2023/06/16 03:56:05;;;;;;;3.83;3.43;;;15.10;99.90;;;;;;5089604;28;20443;-82
2023/06/16 03:58:34;;;;;;;4.60;3.50;;;15.10;99.90;;;;;;5090428;28;20900;-82
2023/06/16 04:01:02;;;;;;;7.00;4.90;;;15.10;99.90;;;;;;5091405;28;20453;-82
2023/06/16 04:03:29;;;;;;;5.00;3.70;;;15.10;99.90;;;;;;5089702;28;20759;-82
2023/06/16 04:05:56;;;;;;;5.00;4.00;;;15.00;99.90;;;;;;5091024;28;20509;-82
2023/06/16 04:08:23;;;;;;;5.50;4.40;;;15.00;99.90;;;;;;5091364;28;20524;-82
2023/06/16 04:10:49;;;;;;;6.70;4.53;;;14.80;99.90;;;;;;5091369;28;20440;-82
2023/06/16 04:13:16;;;;;;;6.10;5.60;;;14.70;99.90;;;;;;5091297;28;20474;-82
2023/06/16 04:15:45;;;;;;;6.20;5.10;;;14.70;99.90;;;;;;5091179;28;20448;-83
2023/06/16 04:18:11;;;;;;;4.93;4.13;;;14.70;99.90;;;;;;5091121;28;20536;-82
2023/06/16 04:20:38;;;;;;;4.93;4.03;;;14.60;99.90;;;;;;5091670;28;20477;-82
2023/06/16 04:23:06;;;;;;;5.30;4.20;;;14.70;99.90;;;;;;5091257;28;20470;-82
2023/06/16 04:25:35;;;;;;;5.23;3.43;;;14.80;99.90;;;;;;5090939;28;20442;-82
2023/06/16 04:28:02;;;;;;;5.00;4.00;;;14.90;99.90;;;;;;5091145;28;20804;-82
2023/06/16 04:30:30;;;;;;;4.90;4.40;;;15.00;99.90;;;;;;5091400;28;20473;-82
2023/06/16 04:33:01;;;;;;;4.47;3.83;;;15.10;99.90;;;;;;5091156;28;20564;-82
2023/06/16 04:35:29;;;;;;;6.20;4.33;;;15.10;99.90;;;;;;5090647;28;21033;-82
2023/06/16 04:37:57;;;;;;;4.53;3.80;;;15.20;99.90;;;;;;5091075;28;20443;-83
2023/06/16 04:40:24;;;;;;;5.97;4.53;;;15.10;99.90;;;;;;5091287;28;20499;-82
2023/06/16 04:42:50;;;;;;;3.97;3.50;;;15.00;99.90;;;;;;5089248;28;20471;-82
2023/06/16 04:45:18;;;;;;;5.73;3.87;;;15.00;99.90;;;;;;5090641;28;20521;-82
2023/06/16 04:47:45;;;;;;;4.20;3.80;;;14.90;99.90;;;;;;5091049;28;20496;-83
2023/06/16 04:50:15;;;;;;;6.00;4.40;;;14.80;99.90;;;;;;5090884;28;20446;-82
2023/06/16 04:52:42;;;;;;;5.13;4.50;;;14.80;99.90;;;;;;5090822;28;20433;-82
2023/06/16 04:55:09;;;;;;;7.83;4.70;;;14.90;99.90;;;;;;5090628;28;20499;-82
2023/06/16 04:57:36;;;;;;;4.80;4.20;;;14.90;99.90;;;;;;5090517;28;20507;-82
2023/06/16 05:00:07;;;;;;;5.10;4.60;;;14.90;99.90;;;;;;5090970;28;20445;-83
2023/06/16 05:02:35;;;;;;;5.10;4.23;;;14.90;99.90;;;;;;5090355;28;20535;-82
2023/06/16 05:05:03;;;;;;;5.23;4.67;;;14.90;99.90;;;;;;5091108;28;20512;-81
2023/06/16 05:07:31;;;;;;;5.87;5.00;;;14.90;99.90;;;;;;5090664;28;20458;-81
2023/06/16 05:09:58;;;;;;;7.13;4.73;;;15.00;99.90;;;;;;5093779;28;20540;-81
2023/06/16 05:12:25;;;;;;;4.60;4.00;;;15.10;99.90;;;;;;5092224;28;20693;-82
2023/06/16 05:14:52;;;;;;;5.63;4.00;;;15.20;99.90;;;;;;5092985;28;20487;-82
2023/06/16 05:17:19;;;;;;;5.53;4.13;;;15.30;99.90;;;;;;5094331;28;20473;-81
2023/06/16 05:19:46;;;;;;;4.37;3.97;;;15.40;99.90;;;;;;5093801;28;20445;-83
2023/06/16 05:22:14;;;;;;;4.50;3.40;;;15.50;99.90;;;;;;5095597;28;20451;-81
2023/06/16 05:24:42;;;;;;;5.10;3.47;;;15.50;99.90;;;;;;5094210;28;21180;-82
2023/06/16 05:27:09;;;;;;;5.80;4.70;;;15.60;99.90;;;;;;5096013;28;20529;-82
2023/06/16 05:29:36;;;;;;;5.07;4.57;;;15.70;99.90;;;;;;5096152;28;20930;-82
2023/06/16 05:32:03;;;;;;;6.40;5.40;;;15.70;99.90;;;;;;5096462;28;20492;-82
2023/06/16 05:34:29;;;;;;;4.90;4.43;;;15.80;99.90;;;;;;5097154;28;21041;-82
2023/06/16 05:36:56;;;;;;;5.33;4.80;;;15.80;99.90;;;;;;5097113;28;20454;-82
2023/06/16 05:39:23;;;;;;;5.73;4.43;;;15.80;99.90;;;;;;5099297;28;20907;-83
2023/06/16 05:41:52;;;;;;;5.93;4.00;;;15.90;99.90;;;;;;5098104;28;20507;-82
2023/06/16 05:44:18;;;;;;;5.63;4.30;;;15.90;99.90;;;;;;5096891;28;20483;-81
2023/06/16 05:46:45;;;;;;;5.07;4.57;;;15.90;99.90;;;;;;5097307;28;20478;-81
2023/06/16 05:49:12;;;;;;;4.57;4.17;;;16.00;99.90;;;;;;5096883;28;20477;-82
2023/06/16 05:51:39;;;;;;;5.53;4.73;;;16.00;99.90;;;;;;5097400;28;20464;-81
2023/06/16 05:54:06;;;;;;;5.83;4.60;;;16.10;99.90;;;;;;5098421;28;20477;-83
2023/06/16 05:56:33;;;;;;;4.80;3.50;;;16.10;99.90;;;;;;5099512;28;20466;-83
2023/06/16 05:59:01;;;;;;;6.33;4.57;;;16.00;99.90;;;;;;5099020;28;20475;-84
2023/06/16 06:01:28;;;;;;;7.43;4.60;;;15.90;99.90;;;;;;5098091;28;20951;-85
2023/06/16 06:03:55;;;;;;;5.80;4.90;;;16.00;99.90;;;;;;5097470;28;20463;-83
2023/06/16 06:06:22;;;;;;;5.60;4.23;;;16.20;99.90;;;;;;5099277;28;20482;-84
2023/06/16 06:08:50;;;;;;;6.20;4.73;;;16.30;99.90;;;;;;5099203;28;20492;-83
2023/06/16 06:11:17;;;;;;;5.70;4.67;;;16.40;99.90;;;;;;5098192;28;20464;-83
2023/06/16 06:13:44;;;;;;;5.50;5.00;;;16.40;99.90;;;;;;5097525;28;20492;-83
2023/06/16 06:16:12;;;;;;;5.33;4.77;;;16.40;99.90;;;;;;5098104;28;20475;-85
2023/06/16 06:18:43;;;;;;;5.67;4.77;;;16.30;99.90;;;;;;5097504;28;20493;-83
2023/06/16 06:21:10;;;;;;;5.77;4.17;;;16.30;99.90;;;;;;5096678;28;20421;-83
2023/06/16 06:23:37;;;;;;;7.27;5.50;;;16.20;99.90;;;;;;5097008;28;20493;-84
2023/06/16 06:26:04;;;;;;;4.27;3.50;;;16.20;99.90;;;;;;5098630;28;21035;-83
2023/06/16 06:28:31;;;;;;;5.57;4.13;;;16.20;99.90;;;;;;5098532;28;20478;-83
2023/06/16 06:30:57;;;;;;;5.13;4.60;;;16.20;99.90;;;;;;5098973;28;20477;-83
2023/06/16 06:33:26;;;;;;;5.47;4.40;;;16.20;99.90;;;;;;5097810;28;20517;-83
2023/06/16 06:35:53;;;;;;;5.67;4.70;;;16.20;99.90;;;;;;5097438;28;20492;-83
2023/06/16 06:38:20;;;;;;;15.03;11.73;;;16.30;99.90;;;;;;5107320;27;20423;-83
2023/06/16 06:40:47;;;;;;;8.33;6.97;;;16.50;99.90;;;;;;5093325;28;20432;-83
2023/06/16 06:43:14;;;;;;;8.80;7.47;;;16.70;99.90;;;;;;5092857;28;20988;-84
2023/06/16 06:45:41;;;;;;;5.97;4.70;;;16.80;99.90;;;;;;5093437;28;20444;-83
2023/06/16 06:48:08;;;;;;;8.00;4.97;;;16.80;99.90;;;;;;5093441;28;20999;-83
2023/06/16 06:50:36;;;;;;;4.77;4.03;;;16.90;99.90;;;;;;5094916;28;20457;-83
2023/06/16 06:53:03;;;;;;;4.37;3.67;;;16.90;99.90;;;;;;5093914;28;20551;-83
2023/06/16 06:55:30;;;;;;;4.67;4.00;;;16.90;99.90;;;;;;5094267;28;20893;-83
2023/06/16 06:57:57;;;;;;;4.10;3.53;;;16.80;99.90;;;;;;5093652;28;20473;-83
2023/06/16 07:00:24;;;;;;;5.60;4.00;;;16.80;99.90;;;;;;5094142;28;20482;-83
2023/06/16 07:02:51;;;;;;;6.27;4.37;;;16.90;99.90;;;;;;5091314;28;20441;-83
2023/06/16 07:05:18;;;;;;;4.70;4.30;;;17.00;99.90;;;;;;5093748;28;20523;-83
2023/06/16 07:07:46;;;;;;;4.53;3.97;;;17.00;99.90;;;;;;5094402;28;20854;-83
2023/06/16 07:10:13;;;;;;;5.20;3.60;;;17.00;99.90;;;;;;5096486;28;20458;-85
2023/06/16 07:12:40;;;;;;;4.93;4.30;;;16.90;99.90;;;;;;5094563;28;20493;-83
2023/06/16 07:15:08;;;;;;;4.63;3.43;;;16.90;99.90;;;;;;5092674;28;20513;-83
2023/06/16 07:17:35;;;;;;;4.60;3.93;;;16.90;99.90;;;;;;5093385;28;20485;-83
2023/06/16 07:20:02;;;;;;;9.40;4.40;;;16.80;99.90;;;;;;5094584;28;20501;-83
2023/06/16 07:22:29;;;;;;;4.83;3.90;;;16.80;99.90;;;;;;5093015;28;20829;-83
2023/06/16 07:24:57;;;;;;;4.73;3.80;;;16.80;99.90;;;;;;5093844;28;20485;-83
2023/06/16 07:27:24;;;;;;;4.10;3.70;;;16.90;99.90;;;;;;5095658;28;20866;-83
2023/06/16 07:29:51;;;;;;;5.70;4.40;;;16.90;99.90;;;;;;5095231;28;20452;-83
2023/06/16 07:32:18;;;;;;;6.23;4.70;;;17.00;99.90;;;;;;5096412;28;20451;-83
2023/06/16 07:34:46;;;;;;;5.13;4.27;;;17.10;99.90;;;;;;5094449;28;20569;-83
2023/06/16 07:37:15;;;;;;;5.20;4.00;;;17.20;99.90;;;;;;5094546;28;20503;-83
2023/06/16 07:39:42;;;;;;;4.87;4.13;;;17.20;99.90;;;;;;5094211;28;20466;-84
2023/06/16 07:42:10;;;;;;;5.27;4.30;;;17.30;99.90;;;;;;5094198;28;20478;-83
2023/06/16 07:44:37;;;;;;;5.30;4.47;;;17.40;99.90;;;;;;5093367;28;20466;-82
2023/06/16 07:47:05;;;;;;;5.23;3.63;;;17.50;99.90;;;;;;5096914;28;20871;-83
2023/06/16 07:49:32;;;;;;;4.80;4.13;;;17.50;99.90;;;;;;5094452;28;20870;-83
2023/06/16 07:51:59;;;;;;;5.17;4.40;;;17.50;99.90;;;;;;5094543;28;20498;-84
2023/06/16 07:54:25;;;;;;;6.57;4.70;;;17.50;99.90;;;;;;5093655;28;20547;-83
2023/06/16 07:56:53;;;;;;;6.07;4.43;;;17.50;99.90;;;;;;5096291;28;20443;-83
2023/06/16 07:59:21;;;;;;;5.43;4.33;;;17.50;99.90;;;;;;5093100;28;20444;-83
2023/06/16 08:01:48;;;;;;;4.93;4.40;;;17.40;99.90;;;;;;5090814;28;20996;-83
2023/06/16 08:04:15;;;;;;;5.60;5.10;;;17.40;99.90;;;;;;5095413;28;21065;-84
2023/06/16 08:06:42;;;;;;;8.63;6.00;;;17.70;99.90;;;;;;5096229;28;20466;-83
2023/06/16 08:09:11;;;;;;;9.20;5.47;;;17.80;99.90;;;;;;5091891;28;20495;-83
2023/06/16 08:11:38;;;;;;;9.60;6.67;;;18.00;99.90;;;;;;5094706;28;20476;-85
2023/06/16 08:14:05;;;;;;;7.80;6.23;;;18.10;99.90;;;;;;5095471;28;20508;-83
2023/06/16 08:16:33;;;;;;;7.13;5.30;;;18.20;99.90;;;;;;5094041;28;20475;-83
2023/06/16 08:19:01;;;;;;;6.73;5.60;;;18.10;99.90;;;;;;5093228;28;20508;-83
2023/06/16 08:21:27;;;;;;;9.03;6.00;;;17.90;99.90;;;;;;5094314;28;20450;-83
2023/06/16 08:23:55;;;;;;;5.97;5.10;;;17.70;99.90;;;;;;5095623;28;20494;-84
2023/06/16 08:26:21;;;;;;;12.13;6.83;;;17.60;99.90;;;;;;5097829;28;20484;-83
2023/06/16 08:28:50;;;;;;;6.50;5.20;;;18.00;99.90;;;;;;5096970;28;20511;-84
2023/06/16 08:31:17;;;;;;;7.80;6.33;;;18.20;99.90;;;;;;5097371;28;20445;-83
2023/06/16 08:33:45;;;;;;;10.63;5.73;;;18.10;99.90;;;;;;5096865;28;20511;-84
2023/06/16 08:36:12;;;;;;;7.60;6.37;;;18.10;99.90;;;;;;5094066;28;20473;-83
2023/06/16 08:38:41;;;;;;;6.67;6.07;;;18.00;99.90;;;;;;5093559;28;20702;-84
2023/06/16 08:41:10;;;;;;;6.93;6.33;;;17.90;99.90;;;;;;5094203;28;20455;-83
2023/06/16 08:43:37;;;;;;;6.90;6.20;;;17.80;99.90;;;;;;5096521;28;20963;-83
2023/06/16 08:46:08;;;;;;;7.37;6.63;;;17.80;99.90;;;;;;5098186;28;20452;-83
2023/06/16 08:48:36;;;;;;;8.33;6.47;;;17.80;99.90;;;;;;5098734;28;20537;-83
2023/06/16 08:51:06;;;;;;;7.07;5.57;;;17.60;99.90;;;;;;5098934;28;21030;-83
2023/06/16 08:53:34;;;;;;;6.07;5.27;;;17.60;99.90;;;;;;5100506;28;20478;-83
2023/06/16 08:56:02;;;;;;;7.30;6.17;;;17.60;99.90;;;;;;5098415;28;20493;-83
2023/06/16 08:58:30;;;;;;;8.10;5.90;;;17.70;99.90;;;;;;5099597;28;20449;-83
2023/06/16 09:00:58;;;;;;;5.90;5.20;;;17.70;99.90;;;;;;5098083;28;20475;-83
2023/06/16 09:03:26;;;;;;;8.07;6.03;;;17.60;99.90;;;;;;5094656;28;20540;-83
2023/06/16 09:05:53;;;;;;;10.33;6.40;;;18.00;99.90;;;;;;5096148;28;20446;-83
2023/06/16 09:08:22;;;;;;;5.60;5.00;;;18.30;99.90;;;;;;5099435;28;20458;-84
2023/06/16 09:10:54;;;;;;;6.17;5.47;;;18.40;99.90;;;;;;5099790;28;21002;-83
2023/06/16 09:13:22;;;;;;;5.20;4.70;;;18.30;99.90;;;;;;5096722;28;20478;-83
2023/06/16 09:15:50;;;;;;;5.53;4.87;;;18.20;99.90;;;;;;5098028;28;20531;-84
2023/06/16 09:18:18;;;;;;;5.47;4.83;;;18.30;99.90;;;;;;5098000;28;20474;-83
2023/06/16 09:20:51;;;;;;;5.10;4.60;;;18.40;99.90;;;;;;5098676;28;20936;-84
2023/06/16 09:23:29;;;;;;;5.73;4.83;;;18.50;99.90;;;;;;5099613;28;20468;-83
2023/06/16 09:25:56;;;;;;;6.93;4.67;;;18.60;99.90;;;;;;5097047;28;20452;-83
2023/06/16 09:28:35;;;;;;;5.17;4.67;;;18.60;99.90;;;;;;5094864;28;20482;-83
2023/06/16 09:31:03;;;;;;;6.30;4.97;;;18.80;99.90;;;;;;5096846;28;20447;-83
2023/06/16 09:33:30;;;;;;;5.97;4.50;;;19.00;99.90;;;;;;5098472;28;20466;-83
2023/06/16 09:35:58;;;;;;;5.50;4.43;;;19.10;99.90;;;;;;5097090;28;20567;-84
2023/06/16 09:38:25;;;;;;;6.20;5.40;;;19.20;99.90;;;;;;5096256;28;20444;-83
2023/06/16 09:40:53;;;;;;;5.30;4.40;;;19.10;99.90;;;;;;5095281;28;20444;-83
2023/06/16 09:43:20;;;;;;;5.87;5.10;;;19.10;99.90;;;;;;5094811;28;20549;-83
2023/06/16 09:45:57;;;;;;;5.50;4.50;;;19.00;99.90;;;;;;5095273;28;20499;-83
2023/06/16 09:48:26;;;;;;;5.63;5.00;;;18.80;99.90;;;;;;5097044;28;20443;-83
2023/06/16 09:50:53;;;;;;;10.97;5.77;;;18.50;99.90;;;;;;5098258;28;20436;-83
2023/06/16 09:53:23;;;;;;;6.10;5.50;;;17.70;99.90;;;;;;5099107;28;20465;-83
2023/06/16 09:55:51;;;;;;;6.50;5.30;;;17.20;99.90;;;;;;5095236;28;21007;-83
2023/06/16 09:58:20;;;;;;;7.20;5.40;;;16.90;99.90;;;;;;5097023;28;21100;-83
2023/06/16 10:00:47;;;;;;;8.03;5.97;;;16.80;99.90;;;;;;5099164;28;20465;-83
2023/06/16 10:03:15;;;;;;;7.50;4.70;;;17.00;99.90;;;;;;5097248;28;20519;-83
2023/06/16 10:05:47;;;;;;;8.67;5.90;;;17.00;99.90;;;;;;5099635;28;20505;-83
2023/06/16 10:08:17;;;;;;;7.40;5.80;;;16.60;99.90;;;;;;5098472;28;20465;-83
2023/06/16 10:10:46;;;;;;;7.30;5.00;;;16.30;99.90;;;;;;5094293;28;20464;-81
2023/06/16 10:13:14;;;;;;;5.03;4.40;;;16.40;99.90;;;;;;5095289;28;20469;-81
2023/06/16 10:15:43;;;;;;;4.60;4.20;;;16.70;99.90;;;;;;5095604;28;21007;-81
2023/06/16 10:18:14;;;;;;;4.93;4.40;;;16.90;99.90;;;;;;5109469;28;20442;-81
2023/06/16 10:20:42;;;;;;;6.47;5.87;;;17.20;99.90;;;;;;5093472;28;20472;-81
2023/06/16 10:23:10;;;;;;;5.00;4.00;;;17.10;99.90;;;;;;5094359;28;20540;-81
2023/06/16 10:25:38;;;;;;;7.37;4.80;;;17.20;99.90;;;;;;5096793;28;20460;-82
2023/06/16 10:28:10;;;;;;;5.37;4.57;;;17.40;99.90;;;;;;5093505;28;20477;-81
2023/06/16 10:30:38;;;;;;;5.63;4.17;;;17.50;99.90;;;;;;5093401;28;20799;-81
2023/06/16 10:33:17;;;;;;;6.90;4.30;;;17.60;99.90;;;;;;5092966;28;20467;-81
2023/06/16 10:35:51;;;;;;;6.80;5.07;;;17.90;99.90;;;;;;5091693;28;21155;-81
2023/06/16 10:38:18;;;;;;;6.07;4.67;;;17.60;99.90;;;;;;5091069;28;20467;-81
2023/06/16 10:40:45;;;;;;;7.60;4.60;;;17.20;99.90;;;;;;5093468;28;20434;-81
2023/06/16 10:43:25;;;;;;;6.30;4.40;;;17.00;99.90;;;;;;5092993;28;20541;-81
2023/06/16 10:46:11;;;;;;;5.50;4.40;;;17.30;99.90;;;;;;5092910;28;20435;-81
2023/06/16 10:49:11;;;;;;;4.57;3.90;;;17.50;99.90;;;;;;5090800;28;20980;-81
2023/06/16 10:51:48;;;;;;;5.03;4.13;;;17.70;99.90;;;;;;5078067;28;20646;-81
2023/06/16 10:54:34;;;;;;;6.90;4.90;;;17.80;99.90;;;;;;5093388;28;20465;-83
2023/06/16 10:57:02;;;;;;;7.00;4.67;;;17.50;99.90;;;;;;5093631;28;20467;-83
2023/06/16 10:59:30;;;;;;;6.13;4.73;;;17.00;99.90;;;;;;5094134;28;20470;-82
2023/06/16 11:01:58;;;;;;;5.17;3.97;;;17.10;99.90;;;;;;5096901;28;20459;-86
2023/06/16 11:04:26;;;;;;;5.10;3.50;;;17.20;99.90;;;;;;5095207;28;20509;-84
2023/06/16 11:07:11;;;;;;;6.30;4.57;;;17.50;99.90;;;;;;5095842;28;20526;-82
2023/06/16 11:09:38;;;;;;;5.40;4.10;;;17.80;99.90;;;;;;5093338;28;20955;-83
2023/06/16 11:12:06;;;;;;;4.93;4.10;;;18.00;99.90;;;;;;5095151;28;20501;-82
2023/06/16 11:14:34;;;;;;;5.30;4.03;;;18.20;99.90;;;;;;5096959;28;20468;-86
2023/06/16 11:17:03;;;;;;;9.63;4.20;;;18.40;99.90;;;;;;5097636;28;20485;-83
2023/06/16 11:19:30;;;;;;;4.20;3.60;;;18.60;99.90;;;;;;5098843;28;20465;-82
2023/06/16 11:22:01;;;;;;;5.03;4.20;;;18.60;99.90;;;;;;5099514;28;20478;-83
2023/06/16 11:24:32;;;;;;;4.23;3.50;;;18.70;99.90;;;;;;5095826;28;20470;-82
2023/06/16 11:27:00;;;;;;;5.07;3.77;;;18.70;99.90;;;;;;5098843;28;20424;-82
2023/06/16 11:29:29;;;;;;;5.33;4.30;;;18.90;99.90;;;;;;5097652;28;20516;-83
2023/06/16 11:31:59;;;;;;;6.67;4.80;;;18.90;99.90;;;;;;5097950;28;20447;-82
2023/06/16 11:34:26;;;;;;;5.23;4.33;;;18.90;99.90;;;;;;5096085;28;20467;-82
2023/06/16 11:36:53;;;;;;;4.90;4.03;;;19.00;99.90;;;;;;5097667;28;20971;-83
2023/06/16 11:39:20;;;;;;;4.70;3.90;;;19.20;99.90;;;;;;5092737;28;20480;-82
2023/06/16 11:41:55;;;;;;;4.83;3.87;;;19.30;99.90;;;;;;5095653;28;20627;-83
2023/06/16 11:44:22;;;;;;;4.90;3.87;;;19.50;99.90;;;;;;5097370;28;21026;-83
2023/06/16 11:46:48;;;;;;;4.70;3.97;;;19.50;99.90;;;;;;5095881;28;20519;-83
2023/06/16 11:49:16;;;;;;;4.27;3.60;;;19.50;99.90;;;;;;5094806;28;20515;-83
2023/06/16 11:51:44;;;;;;;6.00;4.40;;;19.60;99.90;;;;;;5095561;28;20505;-82
2023/06/16 11:54:11;;;;;;;6.80;5.00;;;19.20;99.90;;;;;;5095581;28;20468;-83
2023/06/16 11:56:39;;;;;;;6.40;4.57;;;19.20;99.90;;;;;;5096611;28;20471;-83
2023/06/16 11:59:09;;;;;;;6.33;4.53;;;19.10;99.90;;;;;;5097936;28;20832;-83
2023/06/16 12:01:36;;;;;;;5.40;4.40;;;18.80;99.90;;;;;;5093940;28;20493;-83
2023/06/16 12:04:03;;;;;;;5.73;3.97;;;18.80;99.90;;;;;;5096635;28;20490;-83
2023/06/16 12:06:31;;;;;;;4.77;4.00;;;18.80;99.90;;;;;;5096894;28;20955;-83
2023/06/16 12:08:58;;;;;;;6.07;4.70;;;18.90;99.90;;;;;;5095978;28;20871;-82
2023/06/16 12:11:28;;;;;;;7.23;4.40;;;18.90;99.90;;;;;;5095907;28;20880;-83
2023/06/16 12:13:56;;;;;;;5.60;4.60;;;19.10;99.90;;;;;;5095368;28;20987;-83
2023/06/16 12:16:26;;;;;;;6.20;4.77;;;19.20;99.90;;;;;;5095784;28;20479;-82
2023/06/16 12:18:53;;;;;;;5.50;4.80;;;19.00;99.30;;;;;;5096614;28;20475;-83
2023/06/16 12:21:22;;;;;;;6.30;4.60;;;19.10;99.90;;;;;;5099688;28;20919;-82
2023/06/16 12:23:51;;;;;;;5.93;4.10;;;19.10;97.40;;;;;;5096285;28;20466;-84
2023/06/16 12:26:33;;;;;;;7.10;3.90;;;19.30;99.90;;;;;;5099039;28;20447;-83
2023/06/16 12:29:02;;;;;;;6.70;4.97;;;19.30;98.80;;;;;;5098558;28;20466;-82
2023/06/16 12:31:31;;;;;;;8.87;4.70;;;19.30;98.60;;;;;;5098206;28;20479;-82
2023/06/16 12:33:58;;;;;;;5.97;4.40;;;19.40;99.10;;;;;;5099255;28;20495;-83
2023/06/16 12:36:25;;;;;;;5.03;4.00;;;19.40;97.20;;;;;;5099388;28;20506;-82
2023/06/16 12:38:55;;;;;;;5.00;3.50;;;19.50;98.90;;;;;;5099438;28;20988;-82
2023/06/16 12:41:22;;;;;;;5.47;3.83;;;19.60;99.90;;;;;;5098848;28;20452;-83
2023/06/16 12:43:51;;;;;;;5.70;3.90;;;19.70;99.90;;;;;;5098331;28;20551;-82
2023/06/16 12:46:18;;;;;;;6.23;4.80;;;19.80;99.90;;;;;;5098246;28;20443;-84
2023/06/16 12:48:47;;;;;;;7.30;4.27;;;19.90;98.90;;;;;;5099347;28;20448;-83
2023/06/16 12:51:17;;;;;;;7.10;5.00;;;19.90;99.50;;;;;;5099266;28;20467;-82